METAR Data
IDs: Format: Raw Decoded Include TAF

Data at: 1507 UTC 03 Jun 2020

LKPR 031500Z 21003KT 120V280 9999 VCTS SCT050CB 19/08 Q1004 TEMPO 5000 TSRA BKN030CB

TAF LKPR 031100Z 0312/0418 33010KT CAVOK
  TEMPO 0312/0322 7000 SHRA SCT040TCU
  PROB30
  TEMPO 0312/0320 33016G30KT 4000 TSRA SCT030CB
  BECMG 0320/0322 15006KT
  TEMPO 0402/0406 3000 BR
  BECMG 0408/0410 BKN040
  TEMPO 0412/0418 7000 SHRA SCT037CB
  PROB40
  TEMPO 0417/0418 2000 TSRA SCT012CB BKN013